createdAt,value
2019-05-14T00:01:42.726Z,28.00
2019-05-14T00:06:33.402Z,30.50
2019-05-14T00:11:24.750Z,28.10
2019-05-14T00:16:16.236Z,29.20
2019-05-14T00:21:12.010Z,28.00
2019-05-14T00:26:02.277Z,28.00
2019-05-14T00:30:52.911Z,27.60
2019-05-14T00:35:44.086Z,28.30
2019-05-14T00:40:35.357Z,29.30
2019-05-14T00:45:26.792Z,30.80
2019-05-14T00:55:12.123Z,32.10
2019-05-14T01:00:01.561Z,32.20
2019-05-14T01:04:52.353Z,33.00
2019-05-14T01:09:43.663Z,31.70
2019-05-14T01:14:35.111Z,32.10
2019-05-14T01:19:26.416Z,32.40
2019-05-14T01:24:21.562Z,30.50
2019-05-14T01:29:13.828Z,30.50
2019-05-14T01:34:05.291Z,30.60
2019-05-14T01:38:56.564Z,32.10
2019-05-14T01:43:48.089Z,32.50
2019-05-14T01:48:41.994Z,33.00
2019-05-14T01:53:35.430Z,31.80
2019-05-14T01:58:26.832Z,31.40
2019-05-14T02:03:18.253Z,31.60
2019-05-14T02:08:12.286Z,32.00
2019-05-14T02:13:03.317Z,35.00
2019-05-14T02:17:54.673Z,35.10
2019-05-14T02:22:46.108Z,33.70
2019-05-14T02:27:37.457Z,35.10
2019-05-14T02:32:30.359Z,35.80
2019-05-14T02:37:20.300Z,35.10
2019-05-14T02:42:11.826Z,34.70
2019-05-14T02:47:03.143Z,33.50
2019-05-14T02:51:58.965Z,35.30
2019-05-14T02:56:50.061Z,35.20
2019-05-14T03:01:41.257Z,35.80
2019-05-14T03:06:33.269Z,35.30
2019-05-14T03:11:24.686Z,35.00
2019-05-14T03:16:35.731Z,38.80
2019-05-14T03:21:09.783Z,39.40
2019-05-14T03:26:01.275Z,37.80
2019-05-14T03:30:53.839Z,36.50
2019-05-14T03:36:05.854Z,36.50
2019-05-14T03:40:32.944Z,36.80
2019-05-14T03:45:24.432Z,37.20
2019-05-14T03:50:19.614Z,37.50
2019-05-14T03:55:10.274Z,37.70
2019-05-14T04:00:00.871Z,37.20
2019-05-14T04:04:52.336Z,37.70
2019-05-14T04:09:43.728Z,39.50
2019-05-14T04:14:35.121Z,38.90
2019-05-14T04:19:30.112Z,36.90
2019-05-14T04:24:20.561Z,35.00
2019-05-14T04:29:11.525Z,34.70
2019-05-14T04:34:03.000Z,35.70
2019-05-14T04:38:55.919Z,36.40
2019-05-14T04:43:45.742Z,24.20
2019-05-14T04:48:44.452Z,18.70
2019-05-14T04:53:31.498Z,14.00
2019-05-14T04:58:22.247Z,8.60
2019-05-14T05:03:13.405Z,5.10
2019-05-14T05:08:02.761Z,3.10
2019-05-14T05:12:54.054Z,2.10
2019-05-14T05:17:53.560Z,1.00
2019-05-14T05:22:40.254Z,1.00
2019-05-14T05:27:29.183Z,1.00
2019-05-14T05:32:20.074Z,1.00
2019-05-14T05:37:11.090Z,1.00
2019-05-14T05:42:02.379Z,1.00
2019-05-14T05:46:53.857Z,1.00
2019-05-14T05:51:45.156Z,1.00
2019-05-14T05:56:39.162Z,1.00
2019-05-14T06:01:49.857Z,1.00
2019-05-14T06:06:19.827Z,1.00
2019-05-14T06:11:10.767Z,1.00
2019-05-14T06:16:04.390Z,1.00
2019-05-14T06:20:57.959Z,1.00
2019-05-14T06:25:49.719Z,1.00
2019-05-14T06:30:43.122Z,1.00
2019-05-14T06:35:34.493Z,1.00
2019-05-14T06:40:28.172Z,1.00
2019-05-14T06:45:19.167Z,1.00
2019-05-14T06:50:10.986Z,1.00
2019-05-14T06:59:56.065Z,1.00
2019-05-14T07:04:48.918Z,1.00
2019-05-14T07:09:38.990Z,2.80
2019-05-14T07:14:30.273Z,2.70
2019-05-14T07:19:21.665Z,4.60
2019-05-14T07:24:13.064Z,3.90
2019-05-14T07:29:04.459Z,3.30
2019-05-14T07:33:58.656Z,3.50
2019-05-14T07:38:49.713Z,4.60
2019-05-14T07:43:39.864Z,5.70
2019-05-14T07:48:30.011Z,5.50
2019-05-14T07:53:42.339Z,6.20
2019-05-14T07:58:12.791Z,6.30
2019-05-14T08:03:04.276Z,5.90
2019-05-14T08:07:55.586Z,6.00
2019-05-14T08:12:48.970Z,7.10
2019-05-14T08:17:39.277Z,5.70
2019-05-14T08:22:32.051Z,6.20
2019-05-14T08:27:31.518Z,6.20
2019-05-14T08:32:14.767Z,5.80
2019-05-14T08:37:08.639Z,5.20
2019-05-14T08:42:04.650Z,6.20
2019-05-14T08:46:49.175Z,6.10
2019-05-14T08:51:40.470Z,7.10
2019-05-14T08:56:31.873Z,6.60
2019-05-14T09:01:23.242Z,8.30
2019-05-14T09:06:14.639Z,4.60
2019-05-14T09:11:05.974Z,6.00
2019-05-14T09:15:58.777Z,7.80
2019-05-14T09:20:49.394Z,4.30
2019-05-14T09:25:53.535Z,3.00
2019-05-14T09:30:31.654Z,4.60
2019-05-14T09:35:23.171Z,4.30
2019-05-14T09:40:14.513Z,3.80
2019-05-14T09:45:10.493Z,1.00
2019-05-14T09:50:23.059Z,2.80
2019-05-14T09:54:50.115Z,3.00
2019-05-14T09:59:40.100Z,3.50
2019-05-14T10:04:31.425Z,4.00
2019-05-14T10:09:22.843Z,5.80
2019-05-14T10:14:16.477Z,3.00
2019-05-14T10:19:07.942Z,3.00
2019-05-14T10:23:59.265Z,1.00
2019-05-14T10:28:50.676Z,1.00
2019-05-14T10:33:42.043Z,1.00
2019-05-14T10:38:33.530Z,1.00
2019-05-14T10:43:24.846Z,1.00
2019-05-14T10:48:18.944Z,1.00
2019-05-14T10:53:09.556Z,1.00
2019-05-14T10:57:59.106Z,1.00
2019-05-14T11:02:50.399Z,1.00
2019-05-14T11:07:42.280Z,1.00
2019-05-14T11:12:33.207Z,1.00
2019-05-14T11:17:24.627Z,1.00
2019-05-14T11:22:18.830Z,1.00
2019-05-14T11:27:09.690Z,1.00
2019-05-14T11:32:01.036Z,1.00
2019-05-14T11:36:52.503Z,1.00
2019-05-14T11:41:43.847Z,1.00
2019-05-14T11:46:59.135Z,1.00
2019-05-14T11:52:10.562Z,1.00
2019-05-14T11:56:19.924Z,1.00
2019-05-14T12:01:09.707Z,1.00
2019-05-14T12:06:00.784Z,1.00
2019-05-14T12:10:52.269Z,1.00
2019-05-14T12:15:43.562Z,1.00
2019-05-14T12:20:35.039Z,1.00
2019-05-14T12:25:28.750Z,1.00
2019-05-14T12:30:20.201Z,1.00
2019-05-14T12:35:11.413Z,1.00
2019-05-14T12:40:02.853Z,1.00
2019-05-14T12:44:54.207Z,1.00
2019-05-14T12:49:48.532Z,1.00
2019-05-14T12:54:39.309Z,1.00
2019-05-14T12:59:28.982Z,1.00
2019-05-14T13:04:20.586Z,1.00
2019-05-14T13:09:11.206Z,1.00
2019-05-14T13:14:02.569Z,1.00
2019-05-14T13:18:54.009Z,1.00
2019-05-14T13:23:48.667Z,1.00
2019-05-14T13:28:40.694Z,1.00
2019-05-14T13:33:30.467Z,1.00
2019-05-14T13:38:21.948Z,1.00
2019-05-14T13:43:14.976Z,1.00
2019-05-14T13:48:04.824Z,1.00
2019-05-14T13:53:13.189Z,1.00
2019-05-14T13:57:49.170Z,1.00
2019-05-14T14:02:38.905Z,1.00
2019-05-14T14:07:30.288Z,1.00
2019-05-14T14:12:28.949Z,1.00
2019-05-14T14:17:13.011Z,1.00
2019-05-14T14:22:04.449Z,1.00
2019-05-14T14:26:58.551Z,1.00
2019-05-14T14:31:49.016Z,1.00
2019-05-14T14:36:39.239Z,1.00
2019-05-14T14:41:29.974Z,1.00
2019-05-14T14:46:21.333Z,1.00
2019-05-14T14:51:12.724Z,1.00
2019-05-14T14:56:04.098Z,1.00
2019-05-14T15:00:55.554Z,1.00
2019-05-14T15:05:50.279Z,1.00
2019-05-14T15:10:39.992Z,1.00
2019-05-14T15:15:32.847Z,1.00
2019-05-14T15:20:23.515Z,1.00
2019-05-14T15:25:15.237Z,1.00
2019-05-14T15:30:06.809Z,1.00
2019-05-14T15:34:59.867Z,1.00
2019-05-14T15:39:49.601Z,1.00
2019-05-14T15:44:59.538Z,1.00
2019-05-14T15:49:32.347Z,1.00
2019-05-14T15:54:50.211Z,1.00
2019-05-14T15:59:19.231Z,1.00
2019-05-14T16:04:12.042Z,1.00
2019-05-14T16:09:00.200Z,1.00
2019-05-14T16:13:51.671Z,1.00
2019-05-14T16:18:45.270Z,1.00
2019-05-14T16:23:39.114Z,1.00
2019-05-14T16:28:29.257Z,1.00
2019-05-14T16:33:19.721Z,1.00
2019-05-14T16:38:11.285Z,1.00
2019-05-14T16:43:09.627Z,1.00
2019-05-14T16:48:01.010Z,1.00
2019-05-14T16:52:52.388Z,1.00
2019-05-14T16:57:43.767Z,1.00
2019-05-14T17:02:35.253Z,1.00
2019-05-14T17:07:29.198Z,1.00
2019-05-14T17:12:23.331Z,1.00
2019-05-14T17:17:09.762Z,1.00
2019-05-14T17:22:00.801Z,1.00
2019-05-14T17:26:54.355Z,1.00
2019-05-14T17:31:49.280Z,1.00
2019-05-14T17:36:39.562Z,1.00
2019-05-14T17:41:30.900Z,1.00
2019-05-14T17:46:22.206Z,1.00
2019-05-14T17:51:13.651Z,1.00
2019-05-14T17:56:08.402Z,1.00
2019-05-14T18:00:58.709Z,1.00
2019-05-14T18:05:49.995Z,1.00
2019-05-14T18:10:43.659Z,1.00
2019-05-14T18:15:39.418Z,1.00
2019-05-14T18:20:29.504Z,1.20
2019-05-14T18:25:22.437Z,1.40
2019-05-14T18:30:13.877Z,1.90
2019-05-14T18:35:07.532Z,2.00
2019-05-14T18:39:59.123Z,1.90
2019-05-14T18:44:50.395Z,3.30
2019-05-14T18:49:41.745Z,2.00
2019-05-14T18:54:33.137Z,3.00
2019-05-14T18:59:24.553Z,2.70
2019-05-14T19:04:15.889Z,2.90
2019-05-14T19:09:11.110Z,3.40
2019-05-14T19:13:58.721Z,3.40
2019-05-14T19:18:50.198Z,3.80
2019-05-14T19:23:41.573Z,4.00
2019-05-14T19:28:33.000Z,4.40
2019-05-14T19:33:24.363Z,4.80
2019-05-14T19:38:18.349Z,4.80
2019-05-14T19:43:09.802Z,5.10
2019-05-14T19:47:58.928Z,5.50
2019-05-14T19:52:50.018Z,5.60
2019-05-14T19:57:41.971Z,5.70
2019-05-14T20:02:32.876Z,5.80
2019-05-14T20:07:24.278Z,5.90
2019-05-14T20:12:17.702Z,6.10
2019-05-14T20:17:09.430Z,6.30
2019-05-14T20:21:59.214Z,6.40
2019-05-14T20:27:12.083Z,6.50
2019-05-14T20:31:41.251Z,7.10
2019-05-14T20:36:32.609Z,7.10
2019-05-14T20:41:24.018Z,7.30
2019-05-14T20:46:18.917Z,7.60
2019-05-14T20:51:09.420Z,7.90
2019-05-14T20:55:59.279Z,8.40
2019-05-14T21:00:49.595Z,9.40
2019-05-14T21:05:42.954Z,9.10
2019-05-14T21:10:32.351Z,9.40
2019-05-14T21:15:23.723Z,10.20
2019-05-14T21:20:15.129Z,10.50
2019-05-14T21:25:12.955Z,11.20
2019-05-14T21:29:58.876Z,10.60
2019-05-14T21:34:49.673Z,10.80
2019-05-14T21:39:41.410Z,10.90
2019-05-14T21:44:32.009Z,11.00
2019-05-14T21:49:23.438Z,11.40
2019-05-14T21:54:14.897Z,11.20
2019-05-14T21:59:06.295Z,11.20
2019-05-14T22:03:59.789Z,11.10
2019-05-14T22:08:49.311Z,11.40
2019-05-14T22:13:40.447Z,11.50
2019-05-14T22:18:34.063Z,11.40
2019-05-14T22:23:25.438Z,11.40
2019-05-14T22:28:19.350Z,11.70
2019-05-14T22:33:09.089Z,11.90
2019-05-14T22:38:00.148Z,12.80
2019-05-14T22:42:51.073Z,12.40
2019-05-14T22:52:33.886Z,12.30
2019-05-14T22:57:25.281Z,12.80
2019-05-14T23:02:19.727Z,13.50
2019-05-14T23:07:08.637Z,13.00
2019-05-14T23:11:59.427Z,13.30
2019-05-14T23:16:50.790Z,13.50
2019-05-14T23:21:42.162Z,13.20
2019-05-14T23:26:33.584Z,13.90
2019-05-14T23:31:25.003Z,14.50
2019-05-14T23:36:18.662Z,16.00
2019-05-14T23:41:09.227Z,15.70
2019-05-14T23:45:59.159Z,15.80
2019-05-14T23:50:50.562Z,15.90
2019-05-14T23:55:41.943Z,16.50
